Time;durP1;ratioP1;P1;durP2;ratioP2;P2;SDS_P1;SDS_P2;PMS_P1;PMS_P2;Temp;Humidity;BMP_temperature;BMP_pressure;BME280_temperature;BME280_humidity;BME280_pressure;Samples;Min_cycle;Max_cycle;Signal;HPM_P1;HPM_P2
2022/08/29 00:04:13;;;;;;;11.30;5.95;;;20.30;99.90;;;;;;10506613;28;20398;-74
2022/08/29 00:09:15;;;;;;;9.65;6.50;;;20.20;99.90;;;;;;10516290;28;20052;-75
2022/08/29 00:14:17;;;;;;;11.73;6.05;;;20.10;99.90;;;;;;10519797;28;20056;-75
2022/08/29 00:19:21;;;;;;;9.55;6.38;;;20.10;99.90;;;;;;10501793;28;20044;-75
2022/08/29 00:24:23;;;;;;;10.20;6.63;;;20.00;99.90;;;;;;10503360;28;20071;-74
2022/08/29 00:29:25;;;;;;;8.63;6.03;;;19.70;99.90;;;;;;10531597;28;20044;-75
2022/08/29 00:34:28;;;;;;;9.85;5.97;;;19.70;99.90;;;;;;10540951;28;20052;-74
2022/08/29 00:39:30;;;;;;;9.52;5.95;;;19.70;99.90;;;;;;10541825;28;20398;-74
2022/08/29 00:44:32;;;;;;;10.13;6.20;;;19.90;99.90;;;;;;10517564;28;20044;-73
2022/08/29 00:49:40;;;;;;;9.88;5.85;;;19.80;99.90;;;;;;10500281;28;20639;-73
2022/08/29 00:54:45;;;;;;;11.53;6.80;;;19.80;99.90;;;;;;10537149;28;20078;-75
2022/08/29 00:59:49;;;;;;;10.32;6.13;;;19.80;99.90;;;;;;10531805;28;20048;-73
2022/08/29 01:04:52;;;;;;;8.45;6.28;;;19.80;99.90;;;;;;10542961;28;20413;-73
2022/08/29 01:09:55;;;;;;;10.35;6.38;;;19.60;99.90;;;;;;10532754;28;20160;-75
2022/08/29 01:15:04;;;;;;;7.72;6.18;;;19.40;99.90;;;;;;10536978;28;20059;-74
2022/08/29 01:20:17;;;;;;;13.38;6.40;;;19.30;99.90;;;;;;10533482;28;20040;-76
2022/08/29 01:25:24;;;;;;;10.40;5.85;;;19.30;99.90;;;;;;10499405;28;20132;-76
2022/08/29 01:30:26;;;;;;;12.32;6.82;;;19.40;99.90;;;;;;10540791;28;20048;-75
2022/08/29 01:35:30;;;;;;;12.05;7.10;;;19.30;99.90;;;;;;10535751;28;20052;-75
2022/08/29 01:40:35;;;;;;;10.82;7.30;;;19.20;99.90;;;;;;10500680;28;20053;-73
2022/08/29 01:45:37;;;;;;;10.20;7.13;;;19.00;99.90;;;;;;10535525;28;20040;-74
2022/08/29 01:50:39;;;;;;;12.35;6.75;;;19.00;99.90;;;;;;10524838;28;20050;-74
2022/08/29 01:55:43;;;;;;;10.85;6.82;;;19.00;99.90;;;;;;10501219;28;20056;-75
2022/08/29 02:00:45;;;;;;;12.77;6.75;;;19.10;99.90;;;;;;10541235;28;20044;-75
2022/08/29 02:05:47;;;;;;;13.05;6.50;;;19.20;99.90;;;;;;10519142;28;20434;-74
2022/08/29 02:10:51;;;;;;;13.15;6.93;;;19.20;99.90;;;;;;10540422;28;20052;-77
2022/08/29 02:15:53;;;;;;;12.45;7.10;;;19.10;99.90;;;;;;10531368;28;20048;-74
2022/08/29 02:20:55;;;;;;;14.02;7.85;;;18.90;99.90;;;;;;10533938;28;20047;-74
2022/08/29 02:25:59;;;;;;;11.90;8.75;;;18.70;99.90;;;;;;10522301;28;20072;-74
2022/08/29 02:31:01;;;;;;;10.98;8.23;;;18.50;99.90;;;;;;10508052;28;20036;-77
2022/08/29 02:36:04;;;;;;;11.45;8.23;;;18.50;99.90;;;;;;10503448;28;20040;-74
2022/08/29 02:41:08;;;;;;;13.10;8.52;;;18.50;99.90;;;;;;10539340;28;20057;-74
2022/08/29 02:46:16;;;;;;;11.40;7.43;;;18.50;99.90;;;;;;10536359;28;20043;-74
2022/08/29 02:51:23;;;;;;;9.97;7.70;;;18.40;99.90;;;;;;10456444;28;20041;-77
2022/08/29 02:56:27;;;;;;;10.00;7.47;;;18.60;99.90;;;;;;10506492;28;20052;-75
2022/08/29 03:01:30;;;;;;;10.05;7.40;;;18.60;99.90;;;;;;10515134;28;20047;-75
2022/08/29 03:06:32;;;;;;;12.15;6.90;;;18.60;99.90;;;;;;10510194;28;20056;-74
2022/08/29 03:11:35;;;;;;;10.32;7.03;;;18.70;99.90;;;;;;10497602;28;20106;-75
2022/08/29 03:16:37;;;;;;;9.63;7.03;;;18.60;99.90;;;;;;10503393;28;20075;-75
2022/08/29 03:21:40;;;;;;;12.98;7.10;;;18.30;99.90;;;;;;10506022;28;20474;-75
2022/08/29 03:26:43;;;;;;;12.20;7.50;;;18.30;99.90;;;;;;10527028;28;20067;-76
2022/08/29 03:31:45;;;;;;;12.25;7.10;;;18.20;99.90;;;;;;10528994;28;20040;-74
2022/08/29 03:36:48;;;;;;;12.05;7.20;;;18.20;99.90;;;;;;10539293;28;20528;-76
2022/08/29 03:41:52;;;;;;;9.70;6.70;;;18.10;99.90;;;;;;10540194;28;20066;-75
2022/08/29 03:46:54;;;;;;;20.23;7.35;;;18.20;99.90;;;;;;10546080;28;20040;-75
2022/08/29 03:51:56;;;;;;;12.63;7.47;;;18.30;99.90;;;;;;10505048;28;20132;-74
2022/08/29 03:56:59;;;;;;;11.77;7.15;;;18.20;99.90;;;;;;10503152;28;20543;-77
2022/08/29 04:02:02;;;;;;;10.90;7.50;;;18.20;99.90;;;;;;10543772;28;20518;-78
2022/08/29 04:07:06;;;;;;;12.38;8.45;;;18.10;99.90;;;;;;10523257;28;20048;-75
2022/08/29 04:12:12;;;;;;;11.68;7.47;;;18.10;99.90;;;;;;10527522;28;20045;-75
2022/08/29 04:17:14;;;;;;;12.35;7.70;;;18.10;99.90;;;;;;10503205;28;20142;-76
2022/08/29 04:22:16;;;;;;;13.90;8.05;;;18.20;99.90;;;;;;10502174;28;20041;-75
2022/08/29 04:27:19;;;;;;;13.18;8.13;;;18.10;99.90;;;;;;10502807;28;20045;-76
2022/08/29 04:32:21;;;;;;;12.68;7.53;;;17.90;99.90;;;;;;10503093;28;20049;-75
2022/08/29 04:37:24;;;;;;;12.10;7.22;;;17.70;99.90;;;;;;10502116;28;20052;-74
2022/08/29 04:42:27;;;;;;;9.15;6.88;;;17.50;99.90;;;;;;10503332;28;20101;-75
2022/08/29 04:47:29;;;;;;;13.15;7.78;;;17.40;99.90;;;;;;10500907;28;20048;-75
2022/08/29 04:52:31;;;;;;;11.30;7.30;;;17.20;99.90;;;;;;10508277;28;20048;-75
2022/08/29 04:57:37;;;;;;;11.00;7.57;;;17.20;99.90;;;;;;10549508;28;20052;-77
2022/08/29 05:02:40;;;;;;;12.07;7.55;;;17.40;99.90;;;;;;10529838;28;20045;-76
2022/08/29 05:07:44;;;;;;;14.40;8.05;;;17.50;99.90;;;;;;10513235;28;20402;-75
2022/08/29 05:12:48;;;;;;;15.27;8.20;;;17.60;99.90;;;;;;10543113;28;20055;-74
2022/08/29 05:17:50;;;;;;;11.95;8.55;;;17.70;99.90;;;;;;10543381;28;20052;-75
2022/08/29 05:22:52;;;;;;;17.73;9.00;;;17.80;99.90;;;;;;10542257;28;20048;-74
2022/08/29 05:27:56;;;;;;;15.43;9.93;;;17.70;99.90;;;;;;10542475;28;20389;-76
2022/08/29 05:32:58;;;;;;;21.48;12.70;;;17.70;99.90;;;;;;10504014;28;20480;-74
2022/08/29 05:38:01;;;;;;;19.60;11.77;;;17.70;99.90;;;;;;10514232;28;20055;-76
2022/08/29 05:43:06;;;;;;;25.02;13.07;;;17.50;99.90;;;;;;10534059;28;20048;-76
2022/08/29 05:48:09;;;;;;;36.88;13.05;;;17.40;99.90;;;;;;10506368;28;20051;-75
2022/08/29 05:53:15;;;;;;;16.77;11.90;;;17.30;99.90;;;;;;10542950;28;20508;-77
2022/08/29 05:58:18;;;;;;;15.23;12.23;;;17.20;99.90;;;;;;10542093;28;20079;-75
2022/08/29 06:03:20;;;;;;;15.55;12.30;;;17.40;99.90;;;;;;10539849;28;20051;-75
2022/08/29 06:08:22;;;;;;;15.63;11.80;;;17.50;99.90;;;;;;10546946;28;20048;-76
2022/08/29 06:13:26;;;;;;;16.23;12.07;;;17.60;99.90;;;;;;10548472;28;20055;-75
2022/08/29 06:18:28;;;;;;;41.90;12.65;;;17.70;99.90;;;;;;10527561;28;20052;-75
2022/08/29 06:23:30;;;;;;;13.57;11.40;;;17.60;99.90;;;;;;10498509;28;20048;-74
2022/08/29 06:28:35;;;;;;;13.60;11.32;;;17.60;99.90;;;;;;10497062;28;20044;-75
2022/08/29 06:33:38;;;;;;;14.45;11.13;;;17.70;99.90;;;;;;10514884;28;20059;-76
2022/08/29 06:38:40;;;;;;;15.07;11.65;;;17.70;99.90;;;;;;10537946;28;20055;-77
2022/08/29 06:43:44;;;;;;;14.57;11.05;;;17.80;99.90;;;;;;10513550;28;20437;-75
2022/08/29 06:48:46;;;;;;;13.15;11.23;;;17.90;99.90;;;;;;10497482;28;20380;-76
2022/08/29 06:53:48;;;;;;;13.15;10.90;;;18.00;99.90;;;;;;10498667;28;20076;-76
2022/08/29 06:58:51;;;;;;;12.07;10.02;;;18.10;99.90;;;;;;10513211;28;20055;-74
2022/08/29 07:03:55;;;;;;;15.20;12.13;;;18.10;99.90;;;;;;10540523;28;20048;-74
2022/08/29 07:08:58;;;;;;;17.65;13.30;;;18.20;99.90;;;;;;10529555;28;20107;-74
2022/08/29 07:14:03;;;;;;;18.38;14.20;;;18.20;99.90;;;;;;10538961;28;20048;-75
2022/08/29 07:19:07;;;;;;;18.38;14.15;;;18.20;99.90;;;;;;10533587;28;20069;-76
2022/08/29 07:24:09;;;;;;;17.98;13.45;;;18.20;99.90;;;;;;10529127;28;20041;-76
2022/08/29 07:29:17;;;;;;;19.25;13.93;;;18.40;99.90;;;;;;10506233;28;20051;-74
2022/08/29 07:34:20;;;;;;;17.83;15.17;;;18.50;99.90;;;;;;10505685;28;20504;-75
2022/08/29 07:39:22;;;;;;;17.15;13.60;;;18.50;99.90;;;;;;10530603;28;20469;-76
2022/08/29 07:44:27;;;;;;;18.67;14.25;;;18.60;99.90;;;;;;10543832;28;20056;-74
2022/08/29 07:49:31;;;;;;;17.60;13.75;;;18.80;99.90;;;;;;10527047;28;20044;-76
2022/08/29 07:54:33;;;;;;;28.13;19.48;;;18.90;99.90;;;;;;10542604;28;20056;-75
2022/08/29 07:59:37;;;;;;;18.42;14.07;;;19.00;99.90;;;;;;10546953;28;20048;-76
2022/08/29 08:04:39;;;;;;;21.00;14.15;;;19.00;99.90;;;;;;10545097;28;20048;-76
2022/08/29 08:09:41;;;;;;;21.23;13.73;;;19.00;99.90;;;;;;10541799;28;20052;-77
2022/08/29 08:14:44;;;;;;;18.83;13.02;;;19.10;99.90;;;;;;10544559;28;20075;-75
2022/08/29 08:19:46;;;;;;;17.95;12.52;;;19.20;99.90;;;;;;10544391;28;20051;-75
2022/08/29 08:24:48;;;;;;;18.95;14.43;;;19.40;99.90;;;;;;10542714;28;20051;-75
2022/08/29 08:29:53;;;;;;;15.43;12.57;;;19.60;99.90;;;;;;10543991;28;20048;-74
2022/08/29 08:34:55;;;;;;;15.13;12.25;;;19.80;99.90;;;;;;10541354;28;20048;-74
2022/08/29 08:39:57;;;;;;;14.32;11.23;;;19.80;99.90;;;;;;10543491;28;20060;-77
2022/08/29 08:45:08;;;;;;;13.73;10.05;;;20.00;99.90;;;;;;10543841;28;20066;-73
2022/08/29 08:50:19;;;;;;;12.30;9.93;;;20.20;99.90;;;;;;10542139;28;20127;-75
2022/08/29 08:55:34;;;;;;;13.15;8.45;;;20.40;99.90;;;;;;10543240;28;20398;-75
2022/08/29 09:00:44;;;;;;;12.30;8.57;;;20.60;99.90;;;;;;10535500;28;20048;-75
2022/08/29 09:06:04;;;;;;;12.13;9.00;;;20.70;99.90;;;;;;10522332;28;20060;-73
2022/08/29 09:11:18;;;;;;;12.40;8.20;;;20.90;99.90;;;;;;10503405;28;20048;-73
2022/08/29 09:16:28;;;;;;;12.80;9.05;;;21.00;99.90;;;;;;10516593;28;20073;-73
2022/08/29 09:21:34;;;;;;;14.70;9.07;;;21.10;99.90;;;;;;10541762;28;20050;-73
2022/08/29 09:26:36;;;;;;;11.25;8.23;;;21.30;99.90;;;;;;10512626;28;20505;-74
2022/08/29 09:31:40;;;;;;;12.38;8.05;;;21.40;99.90;;;;;;10500084;28;20048;-73
2022/08/29 09:36:47;;;;;;;14.60;9.35;;;21.50;99.90;;;;;;10506624;28;20079;-75
2022/08/29 09:41:52;;;;;;;8.98;6.82;;;21.60;99.90;;;;;;10504927;28;20135;-73
2022/08/29 09:47:10;;;;;;;11.68;7.47;;;21.70;99.90;;;;;;10513896;28;20440;-75
2022/08/29 09:52:15;;;;;;;11.00;7.65;;;21.90;99.90;;;;;;10530809;28;20040;-78
2022/08/29 09:57:24;;;;;;;11.35;7.68;;;22.10;99.90;;;;;;10534436;28;20055;-80
2022/08/29 10:02:32;;;;;;;12.77;6.82;;;22.20;99.90;;;;;;10513686;28;20053;-78
2022/08/29 10:07:47;;;;;;;10.57;6.55;;;22.30;99.20;;;;;;10561861;28;20024;-80
2022/08/29 10:12:55;;;;;;;11.20;6.55;;;22.40;99.70;;;;;;10528699;28;20052;-80
2022/08/29 10:18:23;;;;;;;12.50;7.28;;;22.60;99.20;;;;;;10534458;28;20547;-79
2022/08/29 10:23:37;;;;;;;10.48;6.32;;;22.70;98.60;;;;;;10523047;28;20048;-75
2022/08/29 10:28:47;;;;;;;8.85;5.63;;;23.00;99.60;;;;;;10497631;28;20045;-76
2022/08/29 10:34:08;;;;;;;8.65;4.97;;;23.10;97.80;;;;;;10525237;28;20421;-74
2022/08/29 10:39:15;;;;;;;6.90;5.07;;;23.30;95.90;;;;;;10525892;28;20498;-75
2022/08/29 10:44:29;;;;;;;7.75;4.80;;;23.40;95.20;;;;;;10507111;28;20477;-73
2022/08/29 10:49:51;;;;;;;7.10;4.63;;;23.70;94.00;;;;;;10499034;28;20045;-75
2022/08/29 10:55:04;;;;;;;9.45;4.85;;;23.90;93.80;;;;;;10512768;28;20049;-75
2022/08/29 11:00:13;;;;;;;7.45;4.78;;;24.00;92.30;;;;;;10496866;28;20046;-74
2022/08/29 11:05:23;;;;;;;8.68;4.65;;;24.00;93.20;;;;;;10504374;28;20048;-74
2022/08/29 11:10:30;;;;;;;8.70;4.93;;;24.10;93.60;;;;;;10537884;28;20062;-72
2022/08/29 11:15:39;;;;;;;10.97;6.37;;;24.20;92.60;;;;;;10538804;28;20048;-73
2022/08/29 11:20:49;;;;;;;7.70;4.57;;;24.30;92.10;;;;;;10538070;28;20397;-74
2022/08/29 11:25:51;;;;;;;7.20;4.70;;;24.40;91.70;;;;;;10538385;28;20052;-73
2022/08/29 11:31:02;;;;;;;8.50;4.47;;;24.50;91.40;;;;;;10538344;28;20048;-75
2022/08/29 11:36:33;;;;;;;6.22;4.00;;;24.60;91.60;;;;;;10538755;28;20061;-73
2022/08/29 11:41:37;;;;;;;6.22;3.95;;;24.70;89.90;;;;;;10537890;28;20059;-74
2022/08/29 11:46:45;;;;;;;6.15;4.00;;;24.80;89.30;;;;;;10538256;28;20040;-75
2022/08/29 11:51:52;;;;;;;7.68;3.70;;;24.90;86.40;;;;;;10538020;28;20406;-75
2022/08/29 11:57:45;;;;;;;6.63;4.00;;;25.00;87.80;;;;;;10537677;28;20505;-76
2022/08/29 12:02:47;;;;;;;28.48;15.88;;;25.10;86.60;;;;;;10552889;28;20051;-77
2022/08/29 12:07:55;;;;;;;10.40;4.80;;;25.20;86.90;;;;;;10542614;28;20662;-75
2022/08/29 12:12:59;;;;;;;6.68;3.88;;;25.30;84.90;;;;;;10544662;28;20436;-73
2022/08/29 12:18:43;;;;;;;5.50;3.58;;;25.40;81.90;;;;;;10544812;28;20059;-75
2022/08/29 12:23:46;;;;;;;6.93;4.25;;;25.50;83.70;;;;;;10544831;28;20058;-74
2022/08/29 12:28:58;;;;;;;7.03;4.05;;;25.80;85.20;;;;;;10544476;28;20048;-75
2022/08/29 12:34:34;;;;;;;6.93;4.10;;;26.10;83.90;;;;;;10544113;28;20044;-75
2022/08/29 12:40:19;;;;;;;8.23;3.97;;;26.30;83.10;;;;;;10543772;28;20056;-74
2022/08/29 12:45:26;;;;;;;6.60;3.70;;;26.40;81.00;;;;;;10543810;28;20044;-75
2022/08/29 12:50:34;;;;;;;8.38;3.83;;;26.50;80.10;;;;;;10543467;28;20106;-74
2022/08/29 12:55:42;;;;;;;5.85;4.00;;;26.80;78.30;;;;;;10543255;28;20059;-73
2022/08/29 13:00:52;;;;;;;6.10;3.70;;;26.80;76.20;;;;;;10542754;28;20071;-74
2022/08/29 13:06:13;;;;;;;6.35;4.13;;;27.10;76.50;;;;;;10542653;28;20040;-74
2022/08/29 13:11:21;;;;;;;6.78;3.70;;;27.50;79.10;;;;;;10542515;28;20048;-75
2022/08/29 13:16:27;;;;;;;6.00;3.90;;;27.80;76.50;;;;;;10542629;28;20044;-73
2022/08/29 13:21:32;;;;;;;6.43;3.88;;;28.00;75.50;;;;;;10542039;28;20071;-74
2022/08/29 13:26:42;;;;;;;5.57;3.88;;;27.90;73.20;;;;;;10542001;28;20409;-73
2022/08/29 13:31:44;;;;;;;7.22;3.80;;;27.80;72.80;;;;;;10541755;28;20127;-75
2022/08/29 13:36:59;;;;;;;6.07;3.80;;;27.30;73.70;;;;;;10516266;28;20509;-75
2022/08/29 13:42:25;;;;;;;6.90;3.95;;;27.40;76.30;;;;;;10497865;28;20095;-76
2022/08/29 13:47:30;;;;;;;5.85;4.18;;;27.50;74.70;;;;;;10493576;28;20102;-75
2022/08/29 13:52:32;;;;;;;6.43;3.95;;;27.60;74.40;;;;;;10495850;28;20044;-74
2022/08/29 13:57:39;;;;;;;6.75;3.75;;;27.60;74.20;;;;;;10494129;28;20060;-76
2022/08/29 14:02:41;;;;;;;7.40;4.00;;;27.70;73.00;;;;;;10502671;28;20051;-79
2022/08/29 14:07:45;;;;;;;5.03;3.65;;;27.30;74.90;;;;;;10493802;28;20048;-77
2022/08/29 14:12:48;;;;;;;7.30;4.00;;;27.20;74.00;;;;;;10492067;28;20078;-77
2022/08/29 14:17:50;;;;;;;6.45;3.85;;;27.00;74.50;;;;;;10515043;28;20491;-78
2022/08/29 14:22:52;;;;;;;5.57;3.80;;;27.10;73.90;;;;;;10500128;28;20576;-78
2022/08/29 14:27:55;;;;;;;7.43;3.70;;;27.30;75.90;;;;;;10489895;28;20407;-77
2022/08/29 14:32:57;;;;;;;6.13;4.10;;;27.60;73.20;;;;;;10485348;28;20048;-77
2022/08/29 14:38:01;;;;;;;10.77;7.60;;;27.80;73.60;;;;;;10504735;28;20056;-75
2022/08/29 14:43:05;;;;;;;7.22;3.90;;;27.90;73.30;;;;;;10530780;28;20493;-75
2022/08/29 14:48:07;;;;;;;6.68;4.07;;;28.10;72.60;;;;;;10511678;28;20045;-76
2022/08/29 14:53:10;;;;;;;5.70;3.67;;;28.30;72.20;;;;;;10510890;28;20365;-74
2022/08/29 14:58:14;;;;;;;5.68;3.88;;;28.30;69.90;;;;;;10487065;28;20060;-76
2022/08/29 15:03:16;;;;;;;7.03;3.70;;;28.40;69.00;;;;;;10508729;28;20059;-78
2022/08/29 15:08:18;;;;;;;5.88;3.60;;;28.30;72.00;;;;;;10499491;28;20052;-77
2022/08/29 15:13:22;;;;;;;7.28;3.80;;;28.50;70.80;;;;;;10495687;28;20060;-76
2022/08/29 15:18:24;;;;;;;6.03;3.85;;;28.60;69.40;;;;;;10512257;28;20542;-76
2022/08/29 15:23:26;;;;;;;5.85;3.72;;;28.70;68.90;;;;;;10492711;28;20053;-75
2022/08/29 15:28:29;;;;;;;7.47;3.88;;;28.70;69.90;;;;;;10475333;28;20525;-76
2022/08/29 15:33:31;;;;;;;5.57;3.90;;;28.80;68.80;;;;;;10485465;28;20048;-75
2022/08/29 15:38:34;;;;;;;6.72;3.70;;;28.90;68.00;;;;;;10522881;28;20098;-77
2022/08/29 15:43:37;;;;;;;8.32;3.58;;;29.00;67.80;;;;;;10533702;28;20056;-78
2022/08/29 15:48:39;;;;;;;7.93;3.75;;;29.00;67.10;;;;;;10518017;28;20066;-77
2022/08/29 15:53:41;;;;;;;7.18;3.72;;;29.00;67.30;;;;;;10485033;28;20079;-77
2022/08/29 15:58:47;;;;;;;6.40;3.53;;;28.90;67.10;;;;;;10517072;28;20066;-77
2022/08/29 16:03:49;;;;;;;5.85;3.60;;;29.00;66.50;;;;;;10511596;28;20045;-75
2022/08/29 16:08:51;;;;;;;5.60;3.50;;;29.00;66.00;;;;;;10525758;28;20044;-77
2022/08/29 16:13:55;;;;;;;6.95;3.75;;;29.00;68.40;;;;;;10531303;28;20444;-77
2022/08/29 16:18:57;;;;;;;6.22;4.28;;;28.80;67.10;;;;;;10498410;28;20450;-75
2022/08/29 16:24:00;;;;;;;7.50;3.95;;;28.60;68.30;;;;;;10504560;28;20044;-75
2022/08/29 16:29:05;;;;;;;6.88;3.78;;;28.40;68.50;;;;;;10513531;28;20071;-76
2022/08/29 16:34:07;;;;;;;5.43;3.58;;;28.40;70.40;;;;;;10542047;28;20495;-77
2022/08/29 16:39:12;;;;;;;7.10;3.63;;;28.30;72.30;;;;;;10535355;28;20064;-79
2022/08/29 16:44:15;;;;;;;6.70;3.88;;;28.50;73.80;;;;;;10509877;28;20052;-77
2022/08/29 16:49:17;;;;;;;7.45;3.58;;;28.60;73.10;;;;;;10523515;28;20059;-78
2022/08/29 16:54:19;;;;;;;6.10;3.72;;;28.60;72.20;;;;;;10531990;28;20143;-76
2022/08/29 16:59:23;;;;;;;6.95;4.22;;;28.50;71.50;;;;;;10538152;28;20052;-78
2022/08/29 17:04:27;;;;;;;7.60;3.58;;;28.50;73.90;;;;;;10528275;28;20483;-78
2022/08/29 17:19:33;;;;;;;6.53;3.50;;;28.50;71.40;;;;;;10524178;28;20048;-79
2022/08/29 17:24:35;;;;;;;5.00;3.67;;;28.40;74.00;;;;;;10503892;28;20080;-78
2022/08/29 17:29:40;;;;;;;5.97;3.75;;;28.40;74.90;;;;;;10536615;28;20417;-79
2022/08/29 17:34:43;;;;;;;6.97;3.90;;;28.40;76.30;;;;;;10522024;28;20393;-76
2022/08/29 17:39:45;;;;;;;5.22;3.45;;;28.20;75.70;;;;;;10512623;28;20505;-75
2022/08/29 17:44:48;;;;;;;7.25;4.10;;;28.30;77.70;;;;;;10507497;28;20036;-75
2022/08/29 17:49:50;;;;;;;5.40;3.70;;;28.40;76.40;;;;;;10485564;28;20105;-76
2022/08/29 17:54:53;;;;;;;6.43;3.70;;;28.40;76.20;;;;;;10515216;28;20052;-76
2022/08/29 17:59:57;;;;;;;5.22;3.60;;;28.00;76.00;;;;;;10517155;28;20142;-74
2022/08/29 18:04:59;;;;;;;7.78;3.70;;;27.80;76.30;;;;;;10499136;28;20630;-73
2022/08/29 18:10:01;;;;;;;5.68;3.65;;;27.30;77.50;;;;;;10502398;28;20044;-75
2022/08/29 18:15:07;;;;;;;7.53;3.97;;;27.20;79.00;;;;;;10515423;28;20048;-76
2022/08/29 18:20:14;;;;;;;6.68;4.22;;;27.10;80.50;;;;;;10527944;28;20059;-78
2022/08/29 18:25:17;;;;;;;5.93;3.90;;;26.90;82.80;;;;;;10534033;28;20044;-79
2022/08/29 18:30:21;;;;;;;7.55;3.83;;;26.80;82.40;;;;;;10512228;28;20086;-78
2022/08/29 18:35:23;;;;;;;38.60;23.73;;;26.60;81.50;;;;;;10492068;28;20059;-79
2022/08/29 18:40:27;;;;;;;9.35;4.95;;;26.40;81.90;;;;;;10528328;28;20060;-75
2022/08/29 18:45:32;;;;;;;7.93;4.63;;;26.20;83.30;;;;;;10532994;28;20147;-75
2022/08/29 18:50:35;;;;;;;7.15;4.43;;;26.10;84.30;;;;;;10503666;28;20579;-76
2022/08/29 18:55:38;;;;;;;8.27;4.57;;;26.00;84.90;;;;;;10509346;28;20140;-83
2022/08/29 19:00:44;;;;;;;9.25;4.80;;;25.90;84.60;;;;;;10526558;28;20056;-78
2022/08/29 19:05:49;;;;;;;7.60;4.70;;;25.70;86.50;;;;;;10509887;28;20494;-78
2022/08/29 19:10:51;;;;;;;10.32;4.97;;;25.60;86.80;;;;;;10499323;28;20040;-77
2022/08/29 19:15:57;;;;;;;7.82;4.70;;;25.50;87.40;;;;;;10537177;28;20048;-77
2022/08/29 19:21:06;;;;;;;7.82;5.15;;;25.40;87.90;;;;;;10527297;28;20494;-75
2022/08/29 19:26:13;;;;;;;7.35;5.10;;;25.30;89.40;;;;;;10459465;28;20077;-78
2022/08/29 19:31:17;;;;;;;7.72;4.95;;;25.20;90.20;;;;;;10542619;28;20574;-76
2022/08/29 19:36:20;;;;;;;20.48;12.98;;;25.00;90.70;;;;;;10537326;28;20051;-75
2022/08/29 19:41:22;;;;;;;8.82;5.70;;;24.90;91.40;;;;;;10520642;28;20063;-75
2022/08/29 19:46:25;;;;;;;8.90;5.80;;;24.80;91.70;;;;;;10538798;28;20048;-77
2022/08/29 19:51:31;;;;;;;10.27;6.00;;;24.60;92.30;;;;;;10534245;28;20148;-77
2022/08/29 19:56:34;;;;;;;10.52;6.15;;;24.50;92.40;;;;;;10504467;28;20052;-76
2022/08/29 20:01:37;;;;;;;12.30;5.68;;;24.50;92.50;;;;;;10523752;28;20059;-76
2022/08/29 20:06:39;;;;;;;9.18;5.13;;;24.40;93.30;;;;;;10494720;28;20271;-76
2022/08/29 20:11:41;;;;;;;11.45;5.75;;;24.20;94.20;;;;;;10497286;28;20059;-76
2022/08/29 20:16:45;;;;;;;9.57;6.75;;;24.10;94.90;;;;;;10502070;28;20055;-76
2022/08/29 20:21:48;;;;;;;7.95;5.43;;;23.90;94.20;;;;;;10514645;28;20052;-75
2022/08/29 20:26:50;;;;;;;8.27;5.90;;;23.80;94.90;;;;;;10497755;28;20048;-75
2022/08/29 20:31:53;;;;;;;7.20;5.38;;;23.60;95.60;;;;;;10535679;28;20051;-74
2022/08/29 20:37:13;;;;;;;8.20;5.72;;;23.60;95.70;;;;;;10535812;28;20440;-75
2022/08/29 20:42:17;;;;;;;8.90;5.40;;;23.40;96.30;;;;;;10507963;28;20088;-75
2022/08/29 20:47:23;;;;;;;9.73;5.75;;;23.20;96.70;;;;;;10526315;28;20118;-75
2022/08/29 20:52:25;;;;;;;7.53;5.97;;;23.20;97.20;;;;;;10503919;28;20075;-74
2022/08/29 20:57:27;;;;;;;9.95;6.07;;;23.20;97.20;;;;;;10506634;28;20048;-74
2022/08/29 21:07:50;;;;;;;10.60;5.63;;;23.00;97.60;;;;;;10494303;28;20490;-74
2022/08/29 21:12:53;;;;;;;9.70;5.75;;;22.80;97.90;;;;;;10498872;28;20055;-74
2022/08/29 21:17:59;;;;;;;17.48;11.65;;;22.60;98.40;;;;;;10530805;28;20048;-75
2022/08/29 21:23:03;;;;;;;16.88;7.82;;;22.60;98.80;;;;;;10497326;28;20083;-76
2022/08/29 21:28:06;;;;;;;8.05;5.60;;;22.60;98.90;;;;;;10521396;28;20044;-75
2022/08/29 21:33:10;;;;;;;13.50;6.07;;;22.70;98.60;;;;;;10538592;28;20122;-76
2022/08/29 21:38:12;;;;;;;12.55;6.22;;;22.40;98.70;;;;;;10507964;28;20080;-77
2022/08/29 21:43:14;;;;;;;8.80;5.93;;;22.20;99.30;;;;;;10499876;28;20049;-73
2022/08/29 21:48:17;;;;;;;10.25;6.78;;;22.20;99.40;;;;;;10531855;28;20048;-74
2022/08/29 21:53:19;;;;;;;11.82;6.93;;;22.10;99.20;;;;;;10531425;28;20048;-74
2022/08/29 21:58:21;;;;;;;9.60;6.18;;;22.00;99.50;;;;;;10535445;28;20432;-77
2022/08/29 22:03:25;;;;;;;10.82;5.97;;;22.00;99.40;;;;;;10541103;28;20044;-75
2022/08/29 22:08:27;;;;;;;9.32;5.75;;;21.80;99.60;;;;;;10526752;28;20048;-74
2022/08/29 22:13:29;;;;;;;16.92;7.05;;;21.70;99.80;;;;;;10517205;28;20048;-76
2022/08/29 22:18:33;;;;;;;8.60;6.43;;;21.50;99.90;;;;;;10538610;28;20055;-74
2022/08/29 22:23:35;;;;;;;9.80;6.63;;;21.50;99.90;;;;;;10535420;28;20040;-74
2022/08/29 22:28:37;;;;;;;11.10;6.35;;;21.50;99.90;;;;;;10532881;28;20501;-75
2022/08/29 22:33:42;;;;;;;9.98;5.88;;;21.60;99.90;;;;;;10501505;28;20051;-78
2022/08/29 22:38:46;;;;;;;11.10;6.95;;;21.60;99.90;;;;;;10514263;28;20067;-74
2022/08/29 22:43:49;;;;;;;11.90;6.90;;;21.50;99.90;;;;;;10457838;28;20120;-75
2022/08/29 22:48:52;;;;;;;10.32;6.20;;;21.20;99.90;;;;;;10512073;28;20052;-75
2022/08/29 22:59:14;;;;;;;10.55;6.47;;;21.20;99.90;;;;;;10500294;28;20041;-76
2022/08/29 23:04:18;;;;;;;8.30;6.63;;;21.20;99.90;;;;;;10497067;28;20478;-75
2022/08/29 23:09:20;;;;;;;8.65;6.13;;;21.00;99.90;;;;;;10537033;28;20051;-75
2022/08/29 23:14:25;;;;;;;33.42;19.83;;;21.00;99.90;;;;;;10532998;28;20044;-75
2022/08/29 23:19:29;;;;;;;13.52;8.43;;;21.00;99.90;;;;;;10497649;28;20434;-77
2022/08/29 23:24:31;;;;;;;11.35;7.07;;;21.00;99.90;;;;;;10498778;28;20059;-74
2022/08/29 23:29:35;;;;;;;9.77;6.70;;;21.00;99.90;;;;;;10538466;28;20060;-74
2022/08/29 23:34:39;;;;;;;9.90;6.20;;;21.00;99.90;;;;;;10532154;28;20044;-75
2022/08/29 23:39:43;;;;;;;12.52;6.85;;;21.00;99.90;;;;;;10537904;28;20048;-76
2022/08/29 23:44:45;;;;;;;12.30;6.47;;;20.90;99.90;;;;;;10535718;28;20109;-76
2022/08/29 23:49:48;;;;;;;9.88;6.47;;;20.60;99.90;;;;;;10525057;28;20051;-74
2022/08/29 23:54:51;;;;;;;14.38;6.88;;;20.30;99.90;;;;;;10508936;28;20044;-76
